Time;durP1;ratioP1;P1;durP2;ratioP2;P2;SDS_P1;SDS_P2;PMS_P1;PMS_P2;Temp;Humidity;BMP_temperature;BMP_pressure;BME280_temperature;BME280_humidity;BME280_pressure;Samples;Min_cycle;Max_cycle;Signal;HPM_P1;HPM_P2
2022/05/14 00:01:50;;;;;;;2.45;1.02;;;;;;;;;;5009762;28;20033;-59
2022/05/14 00:04:38;;;;;;;;;;;;;;;;;;;;;
2022/05/14 00:07:41;;;;;;;2.50;1.02;;;;;;;;;;4989603;28;20106;-59
2022/05/14 00:10:29;;;;;;;;;;;;;;;;;;;;;
2022/05/14 00:13:05;;;;;;;9.18;1.50;;;;;;;;;;5009599;28;20053;-58
2022/05/14 00:15:58;;;;;;;0.75;0.40;;;;;;;;;;5009522;28;20105;-59
2022/05/14 00:27:49;;;;;;;2.63;0.68;;;;;;;;;;5022397;28;20053;-58
2022/05/14 00:33:38;;;;;;;1.67;0.75;;;;;;;;;;5046410;28;20032;-58
2022/05/14 00:36:23;;;;;;;1.00;0.70;;;;;;;;;;5047840;28;20029;-58
2022/05/14 00:42:20;;;;;;;1.85;0.82;;;;;;;;;;5029706;28;20030;-58
2022/05/14 00:44:57;;;;;;;3.10;1.15;;;;;;;;;;5026453;28;20443;-58
2022/05/14 00:47:27;;;;;;;2.67;1.20;;;;;;;;;;5026036;28;20473;-58
2022/05/14 00:53:16;;;;;;;4.75;2.42;;;;;;;;;;5014554;28;20174;-58
2022/05/14 00:56:01;;;;;;;2.92;1.90;;;;;;;;;;5025443;28;20048;-58
2022/05/14 01:01:39;;;;;;;6.40;2.33;;;;;;;;;;5026874;28;20048;-58
2022/05/14 01:10:27;;;;;;;5.88;2.35;;;;;;;;;;5004458;28;20184;-58
2022/05/14 01:13:22;;;;;;;4.65;2.03;;;;;;;;;;5007517;28;20042;-58
2022/05/14 01:16:04;;;;;;;3.08;1.55;;;;;;;;;;5026823;28;20046;-58
2022/05/14 01:18:40;;;;;;;3.72;1.98;;;;;;;;;;5025116;28;20053;-58
2022/05/14 01:21:14;;;;;;;6.60;2.17;;;;;;;;;;5026883;28;20037;-58
2022/05/14 01:27:07;;;;;;;4.07;1.33;;;;;;;;;;5045668;28;20527;-58
2022/05/14 01:29:52;;;;;;;3.73;2.00;;;;;;;;;;5019330;28;20053;-58
2022/05/14 01:38:23;;;;;;;4.53;2.25;;;;;;;;;;4986471;28;20066;-59
2022/05/14 01:40:58;;;;;;;5.03;2.05;;;;;;;;;;5046754;28;20030;-58
2022/05/14 01:46:45;;;;;;;;;;;;;;;;;;;;;
2022/05/14 01:52:42;;;;;;;4.35;3.00;;;;;;;;;;5006408;28;20058;-58
2022/05/14 01:55:28;;;;;;;8.68;3.08;;;;;;;;;;5006462;28;20070;-58
2022/05/14 02:00:59;;;;;;;4.60;2.42;;;;;;;;;;5035413;28;20097;-58
2022/05/14 02:03:53;;;;;;;5.05;3.00;;;;;;;;;;5029858;28;20093;-58
2022/05/14 02:06:40;;;;;;;4.20;2.15;;;;;;;;;;4986989;28;20540;-58
2022/05/14 02:09:16;;;;;;;5.25;2.60;;;;;;;;;;4986618;28;20038;-58
2022/05/14 02:15:01;;;;;;;5.15;2.47;;;;;;;;;;4977116;28;20118;-58
2022/05/14 02:17:52;;;;;;;4.88;3.05;;;;;;;;;;4971317;28;20043;-58
2022/05/14 02:20:37;;;;;;;4.13;2.70;;;;;;;;;;4987627;28;20026;-58
2022/05/14 02:23:32;;;;;;;3.28;2.05;;;;;;;;;;4987217;28;20043;-58
2022/05/14 02:26:29;;;;;;;5.45;2.70;;;;;;;;;;4946109;29;20103;-58
2022/05/14 02:35:11;;;;;;;3.50;2.17;;;;;;;;;;5019339;28;20056;-59
2022/05/14 02:37:37;;;;;;;4.15;2.65;;;;;;;;;;4994511;28;20046;-58
2022/05/14 02:43:14;;;;;;;5.50;2.50;;;;;;;;;;5026396;28;20037;-58
2022/05/14 02:49:12;;;;;;;;;;;;;;;;;;;;;
2022/05/14 02:51:53;;;;;;;4.13;2.50;;;;;;;;;;5029088;28;20496;-58
2022/05/14 02:57:13;;;;;;;3.35;2.38;;;;;;;;;;5041724;28;20044;-58
2022/05/14 03:03:08;;;;;;;8.80;3.13;;;;;;;;;;5043248;28;20037;-58
2022/05/14 03:05:50;;;;;;;5.13;2.58;;;;;;;;;;5051358;28;20032;-58
2022/05/14 03:08:51;;;;;;;5.85;2.42;;;;;;;;;;5051303;28;20030;-58
2022/05/14 03:14:22;;;;;;;;;;;;;;;;;;;;;
2022/05/14 03:26:07;;;;;;;6.88;3.17;;;;;;;;;;4984154;28;20679;-58
2022/05/14 03:29:07;;;;;;;4.35;2.78;;;;;;;;;;4989335;28;20050;-58
2022/05/14 03:31:48;;;;;;;6.60;2.40;;;;;;;;;;5019153;28;20045;-58
2022/05/14 03:34:55;;;;;;;5.22;3.03;;;;;;;;;;5017159;28;20033;-57
2022/05/14 03:37:28;;;;;;;4.40;2.90;;;;;;;;;;5017751;28;20022;-58
2022/05/14 03:40:09;;;;;;;5.30;2.92;;;;;;;;;;5017285;28;20077;-58
2022/05/14 03:43:17;;;;;;;5.13;2.20;;;;;;;;;;5001128;28;20022;-58
2022/05/14 03:46:10;;;;;;;3.30;2.40;;;;;;;;;;4975890;28;20046;-58
2022/05/14 03:48:54;;;;;;;10.40;2.90;;;;;;;;;;5013154;28;20384;-58
2022/05/14 03:54:28;;;;;;;5.15;2.45;;;;;;;;;;4991095;28;20380;-58
2022/05/14 03:57:19;;;;;;;4.65;1.95;;;;;;;;;;5017602;28;20026;-58
2022/05/14 04:02:52;;;;;;;3.30;2.33;;;;;;;;;;5002393;28;20044;-58
2022/05/14 04:08:37;;;;;;;2.70;2.20;;;;;;;;;;4993902;28;20070;-58
2022/05/14 04:11:44;;;;;;;2.75;2.00;;;;;;;;;;5017197;28;20080;-58
2022/05/14 04:14:11;;;;;;;3.17;2.05;;;;;;;;;;5017122;28;20034;-58
2022/05/14 04:16:46;;;;;;;3.58;2.60;;;;;;;;;;4999083;28;20459;-58
2022/05/14 04:22:12;;;;;;;5.00;2.10;;;;;;;;;;5009441;28;20030;-58
2022/05/14 04:25:01;;;;;;;4.00;1.98;;;;;;;;;;4999391;28;20507;-58
2022/05/14 04:27:41;;;;;;;4.63;1.70;;;;;;;;;;5002026;28;20042;-58
2022/05/14 04:30:26;;;;;;;7.65;2.70;;;;;;;;;;5036614;28;20037;-58
2022/05/14 04:33:04;;;;;;;2.25;1.55;;;;;;;;;;5018605;28;20033;-58
2022/05/14 04:38:47;;;;;;;3.72;1.98;;;;;;;;;;5036403;28;20039;-58
2022/05/14 04:41:25;;;;;;;4.65;1.73;;;;;;;;;;5036895;28;20022;-58
2022/05/14 04:49:45;;;;;;;4.50;2.30;;;;;;;;;;5035580;28;20095;-58
2022/05/14 04:52:32;;;;;;;3.72;1.50;;;;;;;;;;5035534;28;20018;-58
2022/05/14 04:55:24;;;;;;;6.57;2.85;;;;;;;;;;5017841;28;20037;-58
2022/05/14 04:58:15;;;;;;;3.83;1.88;;;;;;;;;;4993891;28;20480;-58
2022/05/14 05:00:56;;;;;;;2.78;1.70;;;;;;;;;;5035733;28;20029;-58
2022/05/14 05:03:34;;;;;;;4.03;1.65;;;;;;;;;;5032663;28;20029;-58
2022/05/14 05:06:03;;;;;;;4.20;1.92;;;;;;;;;;5000807;28;20450;-58
2022/05/14 05:08:33;;;;;;;7.32;1.70;;;;;;;;;;5017279;28;20448;-58
2022/05/14 05:11:17;;;;;;;2.45;1.55;;;;;;;;;;5034524;28;20522;-59
2022/05/14 05:17:49;;;;;;;4.68;1.92;;;;;;;;;;5028043;28;20533;-59
2022/05/14 05:20:36;;;;;;;3.00;1.52;;;;;;;;;;5003301;28;20037;-59
2022/05/14 05:23:14;;;;;;;5.80;2.13;;;;;;;;;;5034773;28;20029;-59
2022/05/14 05:26:01;;;;;;;2.40;1.25;;;;;;;;;;5035516;28;20394;-58
2022/05/14 05:31:27;;;;;;;3.03;1.92;;;;;;;;;;5010774;28;20120;-59
2022/05/14 05:37:33;;;;;;;5.00;2.25;;;;;;;;;;5021413;28;20488;-58
2022/05/14 05:40:34;;;;;;;5.05;1.70;;;;;;;;;;4955288;28;20062;-58
2022/05/14 05:43:12;;;;;;;;;;;;;;;;;;4973284;28;20026;-58
2022/05/14 05:49:27;;;;;;;4.53;2.28;;;;;;;;;;4973824;28;20065;-58
2022/05/14 05:52:14;;;;;;;;;;;;;;;;;;;;;
2022/05/14 05:58:01;;;;;;;;;;;;;;;;;;;;;
2022/05/14 06:00:54;;;;;;;4.45;2.72;;;;;;;;;;4972007;28;20031;-58
2022/05/14 06:03:48;;;;;;;5.93;2.92;;;;;;;;;;4881226;29;20036;-58
2022/05/14 06:09:16;;;;;;;5.90;2.42;;;;;;;;;;4904723;29;20036;-58
2022/05/14 06:12:24;;;;;;;3.58;1.98;;;;;;;;;;4946366;29;20095;-58
2022/05/14 06:14:56;;;;;;;5.50;2.72;;;;;;;;;;4940487;29;20113;-58
2022/05/14 06:20:55;;;;;;;4.15;2.95;;;;;;;;;;5026565;28;20049;-58
2022/05/14 06:26:39;;;;;;;4.43;1.98;;;;;;;;;;5006394;28;20045;-58
2022/05/14 06:29:36;;;;;;;3.60;2.40;;;;;;;;;;5031640;28;20128;-58
2022/05/14 06:35:24;;;;;;;5.70;2.47;;;;;;;;;;5034930;28;20075;-58
2022/05/14 06:41:49;;;;;;;;;;;;;;;;;;;;;
2022/05/14 06:44:30;;;;;;;3.45;2.38;;;;;;;;;;5031687;28;20124;-58
2022/05/14 06:46:58;;;;;;;;;;;;;;;;;;5035636;28;20025;-58
2022/05/14 06:49:30;;;;;;;4.13;2.10;;;;;;;;;;5034548;28;19976;-58
2022/05/14 06:52:16;;;;;;;4.10;1.95;;;;;;;;;;5032821;28;20464;-58
2022/05/14 06:55:22;;;;;;;2.63;1.77;;;;;;;;;;5033187;28;20041;-58
2022/05/14 06:58:17;;;;;;;4.90;2.15;;;;;;;;;;5035063;28;20166;-58
2022/05/14 07:01:10;;;;;;;3.95;2.70;;;;;;;;;;5033977;28;20444;-58
2022/05/14 07:07:17;;;;;;;4.22;1.73;;;;;;;;;;5034138;28;20088;-59
2022/05/14 07:16:24;;;;;;;4.55;1.88;;;;;;;;;;5033583;28;20036;-59
2022/05/14 07:19:18;;;;;;;5.00;1.25;;;;;;;;;;4991037;28;20508;-59
2022/05/14 07:27:52;;;;;;;8.35;2.40;;;;;;;;;;4989206;28;20040;-59
2022/05/14 07:30:55;;;;;;;3.75;1.85;;;;;;;;;;4990447;28;20055;-59
2022/05/14 07:33:28;;;;;;;4.90;2.20;;;;;;;;;;4987423;28;20034;-59
2022/05/14 07:36:17;;;;;;;3.88;1.70;;;;;;;;;;5002348;28;20438;-59
2022/05/14 07:39:11;;;;;;;2.28;1.25;;;;;;;;;;5034280;28;20489;-59
2022/05/14 07:42:16;;;;;;;;;;;;;;;;;;;;;
2022/05/14 07:51:23;;;;;;;3.05;1.10;;;;;;;;;;4953169;28;20511;-59
2022/05/14 07:53:52;;;;;;;;;;;;;;;;;;4959491;28;20035;-59
2022/05/14 07:59:47;;;;;;;1.80;1.00;;;;;;;;;;4917980;29;20040;-59
2022/05/14 08:02:34;;;;;;;5.13;1.88;;;;;;;;;;4937465;28;20089;-59
2022/05/14 08:05:21;;;;;;;3.20;1.33;;;;;;;;;;4975436;28;20126;-58
2022/05/14 08:08:29;;;;;;;2.83;1.17;;;;;;;;;;4975106;28;20138;-58
2022/05/14 08:14:45;;;;;;;2.40;1.63;;;;;;;;;;4936568;29;20031;-59
2022/05/14 08:17:26;;;;;;;2.00;1.02;;;;;;;;;;4910914;29;20058;-58
2022/05/14 08:26:10;;;;;;;4.82;1.27;;;;;;;;;;4994765;28;20041;-58
2022/05/14 08:28:51;;;;;;;4.00;1.17;;;;;;;;;;4978221;28;20579;-57
2022/05/14 08:31:40;;;;;;;4.55;0.82;;;;;;;;;;5024190;28;20526;-59
2022/05/14 08:34:29;;;;;;;3.28;1.00;;;;;;;;;;4990899;28;20498;-57
2022/05/14 08:37:17;;;;;;;2.10;1.10;;;;;;;;;;5017695;28;20380;-58
2022/05/14 08:42:36;;;;;;;2.88;1.40;;;;;;;;;;5036086;28;20478;-58
2022/05/14 08:45:18;;;;;;;3.30;1.75;;;;;;;;;;5036869;28;20426;-59
2022/05/14 08:51:13;;;;;;;2.45;1.52;;;;;;;;;;5036048;28;20038;-59
2022/05/14 08:54:33;;;;;;;2.00;1.30;;;;;;;;;;5036641;28;20022;-59
2022/05/14 08:57:23;;;;;;;2.83;1.25;;;;;;;;;;5032812;28;20036;-58
2022/05/14 09:00:14;;;;;;;1.73;1.30;;;;;;;;;;5036196;28;20076;-59
2022/05/14 09:03:20;;;;;;;2.42;1.50;;;;;;;;;;5035835;28;20149;-59
2022/05/14 09:12:04;;;;;;;3.58;1.08;;;;;;;;;;5030285;28;20079;-58
2022/05/14 09:18:01;;;;;;;2.67;1.05;;;;;;;;;;5024517;28;20392;-59
2022/05/14 09:24:07;;;;;;;;;;;;;;;;;;;;;
2022/05/14 09:33:20;;;;;;;;;;;;;;;;;;;;;
2022/05/14 09:39:17;;;;;;;1.63;0.75;;;;;;;;;;4973629;28;20081;-59
2022/05/14 09:42:12;;;;;;;3.53;0.98;;;;;;;;;;4897235;29;20680;-59
2022/05/14 09:45:03;;;;;;;2.00;0.90;;;;;;;;;;4897287;29;20057;-59
2022/05/14 09:47:49;;;;;;;1.83;0.80;;;;;;;;;;4897207;29;20039;-59
2022/05/14 09:51:08;;;;;;;2.58;0.95;;;;;;;;;;4922027;28;20036;-59
2022/05/14 09:53:49;;;;;;;2.22;1.02;;;;;;;;;;4977737;28;20041;-60
2022/05/14 09:59:50;;;;;;;2.80;0.90;;;;;;;;;;4993177;28;20392;-59
2022/05/14 10:03:16;;;;;;;;;;;;;;;;;;;;;
2022/05/14 10:09:09;;;;;;;3.60;1.08;;;;;;;;;;5012646;28;20415;-59
2022/05/14 10:12:20;;;;;;;;;;;;;;;;;;;;;
2022/05/14 10:18:14;;;;;;;2.40;1.45;;;;;;;;;;5012002;28;20521;-59
2022/05/14 10:20:49;;;;;;;;;;;;;;;;;;5013020;28;20037;-60
2022/05/14 10:26:50;;;;;;;3.90;1.55;;;;;;;;;;5033762;28;20052;-60
2022/05/14 10:32:29;;;;;;;2.13;1.42;;;;;;;;;;4992686;28;20061;-59
2022/05/14 10:35:18;;;;;;;2.60;1.20;;;;;;;;;;4992291;28;20030;-60
2022/05/14 10:38:31;;;;;;;;;;;;;;;;;;;;;
2022/05/14 10:41:16;;;;;;;3.63;1.38;;;;;;;;;;5029500;28;20443;-60
2022/05/14 10:44:11;;;;;;;2.50;1.25;;;;;;;;;;5006396;28;20041;-60
2022/05/14 10:46:53;;;;;;;7.05;1.75;;;;;;;;;;5034077;28;20436;-59
2022/05/14 10:52:54;;;;;;;3.50;1.50;;;;;;;;;;5034218;28;20131;-61
2022/05/14 10:55:49;;;;;;;7.32;1.20;;;;;;;;;;5033096;28;20075;-60
2022/05/14 10:59:37;;;;;;;;;;;;;;;;;;;;;
2022/05/14 11:04:52;;;;;;;8.40;1.50;;;;;;;;;;5033683;28;20530;-58
2022/05/14 11:07:53;;;;;;;2.88;1.17;;;;;;;;;;5034278;28;20026;-58
2022/05/14 11:13:53;;;;;;;4.43;1.50;;;;;;;;;;5012330;28;20037;-59
2022/05/14 11:16:56;;;;;;;4.85;1.40;;;;;;;;;;5034230;28;20143;-60
2022/05/14 11:25:38;;;;;;;2.58;1.42;;;;;;;;;;5030038;28;20032;-59
2022/05/14 11:28:44;;;;;;;6.20;2.17;;;;;;;;;;5020151;28;20090;-59
2022/05/14 11:31:51;;;;;;;2.47;1.20;;;;;;;;;;5017008;28;20050;-59
2022/05/14 11:34:25;;;;;;;3.13;1.35;;;;;;;;;;4956386;29;20036;-58
2022/05/14 11:37:17;;;;;;;2.95;1.52;;;;;;;;;;5009626;28;20498;-59
2022/05/14 11:40:23;;;;;;;1.73;1.10;;;;;;;;;;5017889;28;20332;-59
2022/05/14 11:43:02;;;;;;;3.30;1.20;;;;;;;;;;4999953;28;20128;-59
2022/05/14 11:46:02;;;;;;;;;;;;;;;;;;;;;
2022/05/14 11:48:46;;;;;;;2.53;1.42;;;;;;;;;;5016935;28;20026;-59
2022/05/14 11:51:43;;;;;;;3.22;1.13;;;;;;;;;;5016549;28;20034;-59
2022/05/14 11:54:47;;;;;;;3.38;1.13;;;;;;;;;;5017127;28;20403;-59
2022/05/14 11:57:45;;;;;;;4.97;1.60;;;;;;;;;;4949500;28;20038;-59
2022/05/14 12:00:32;;;;;;;3.22;1.15;;;;;;;;;;5015655;28;20076;-59
2022/05/14 12:06:14;;;;;;;2.30;1.05;;;;;;;;;;5014661;28;20373;-59
2022/05/14 12:08:56;;;;;;;2.10;1.40;;;;;;;;;;5015938;28;20117;-59
2022/05/14 12:11:44;;;;;;;2.33;1.20;;;;;;;;;;5016213;28;20026;-59
2022/05/14 12:14:22;;;;;;;2.92;1.58;;;;;;;;;;5016245;28;20480;-59
2022/05/14 12:17:29;;;;;;;1.70;0.93;;;;;;;;;;4999049;28;20380;-59
2022/05/14 12:20:19;;;;;;;2.25;1.00;;;;;;;;;;5016220;28;20034;-59
2022/05/14 12:23:01;;;;;;;2.40;1.45;;;;;;;;;;5014945;28;20440;-59
2022/05/14 12:29:13;;;;;;;4.72;1.17;;;;;;;;;;4990995;28;20037;-59
2022/05/14 12:35:04;;;;;;;1.35;0.70;;;;;;;;;;5035770;28;20036;-60
2022/05/14 12:37:59;;;;;;;4.45;1.58;;;;;;;;;;5029277;28;20100;-60
2022/05/14 12:43:43;;;;;;;3.20;1.17;;;;;;;;;;5013229;28;20200;-58
2022/05/14 12:55:40;;;;;;;4.38;0.95;;;;;;;;;;5013791;28;20123;-59
2022/05/14 12:58:21;;;;;;;2.85;1.10;;;;;;;;;;5002294;28;20527;-59
2022/05/14 13:01:23;;;;;;;2.67;1.15;;;;;;;;;;4997451;28;20029;-59
2022/05/14 13:04:15;;;;;;;5.05;1.25;;;;;;;;;;5006586;28;20534;-59
2022/05/14 13:16:04;;;;;;;3.20;0.95;;;;;;;;;;5006133;28;20055;-60
2022/05/14 13:21:51;;;;;;;4.43;1.10;;;;;;;;;;5002963;28;20125;-60
2022/05/14 13:24:52;;;;;;;2.35;1.25;;;;;;;;;;5013328;28;20030;-60
2022/05/14 13:28:05;;;;;;;5.70;0.90;;;;;;;;;;4995640;28;20038;-60
2022/05/14 13:31:15;;;;;;;2.50;0.90;;;;;;;;;;4976565;28;20070;-60
2022/05/14 13:37:46;;;;;;;2.03;1.02;;;;;;;;;;4987122;28;20558;-60
2022/05/14 13:46:15;;;;;;;1.85;1.13;;;;;;;;;;4975106;28;20419;-60
2022/05/14 13:49:17;;;;;;;4.40;1.10;;;;;;;;;;4993646;28;20108;-60
2022/05/14 14:01:23;;;;;;;;;;;;;;;;;;;;;
2022/05/14 14:04:15;;;;;;;3.15;1.42;;;;;;;;;;5012638;28;20040;-58
2022/05/14 14:09:51;;;;;;;3.22;1.35;;;;;;;;;;5014133;28;20049;-57
2022/05/14 14:12:48;;;;;;;3.08;1.77;;;;;;;;;;5014990;28;20080;-58
2022/05/14 14:21:46;;;;;;;2.35;0.82;;;;;;;;;;5005252;28;20148;-58
2022/05/14 14:24:17;;;;;;;2.17;1.02;;;;;;;;;;5007773;28;20117;-58
2022/05/14 14:26:58;;;;;;;;;;;;;;;;;;5014523;28;20108;-59
2022/05/14 14:29:42;;;;;;;1.58;0.98;;;;;;;;;;5017243;28;21272;-59
2022/05/14 14:32:29;;;;;;;4.45;1.75;;;;;;;;;;5016080;28;20483;-59
2022/05/14 14:35:01;;;;;;;4.18;0.88;;;;;;;;;;5015778;28;20037;-59
2022/05/14 14:37:46;;;;;;;1.83;0.90;;;;;;;;;;5033580;28;20091;-58
2022/05/14 14:43:37;;;;;;;2.60;1.00;;;;;;;;;;5036102;28;20487;-59
2022/05/14 14:46:14;;;;;;;2.20;0.70;;;;;;;;;;5037919;28;20017;-59
2022/05/14 14:48:53;;;;;;;1.98;0.90;;;;;;;;;;5020618;28;20025;-58
2022/05/14 14:51:37;;;;;;;5.28;1.42;;;;;;;;;;5001485;28;20052;-59
2022/05/14 15:00:01;;;;;;;2.67;1.15;;;;;;;;;;5037448;28;20033;-59
2022/05/14 15:05:58;;;;;;;3.90;0.95;;;;;;;;;;5020334;28;20041;-59
2022/05/14 15:08:31;;;;;;;2.28;0.88;;;;;;;;;;5033653;28;20102;-59
2022/05/14 15:11:29;;;;;;;2.10;1.05;;;;;;;;;;5020279;28;20080;-59
2022/05/14 15:14:34;;;;;;;2.30;1.00;;;;;;;;;;5037952;28;20482;-59
2022/05/14 15:17:27;;;;;;;;;;;;;;;;;;;;;
2022/05/14 15:20:10;;;;;;;2.78;1.30;;;;;;;;;;4996552;28;20419;-58
2022/05/14 15:22:48;;;;;;;1.80;0.77;;;;;;;;;;4996633;28;20570;-58
2022/05/14 15:25:20;;;;;;;2.92;1.00;;;;;;;;;;4999414;28;20026;-58
2022/05/14 15:30:58;;;;;;;2.72;1.27;;;;;;;;;;5037045;28;20053;-58
2022/05/14 15:37:04;;;;;;;2.97;1.02;;;;;;;;;;4983111;28;20031;-58
2022/05/14 15:39:45;;;;;;;3.25;1.40;;;;;;;;;;5037436;28;20025;-58
2022/05/14 15:42:23;;;;;;;1.63;0.85;;;;;;;;;;5037758;28;20467;-58
2022/05/14 15:44:58;;;;;;;4.93;1.42;;;;;;;;;;5037987;28;20028;-58
2022/05/14 15:47:37;;;;;;;3.10;0.98;;;;;;;;;;5037939;28;20032;-58
2022/05/14 15:50:23;;;;;;;5.28;1.23;;;;;;;;;;5037152;28;20028;-58
2022/05/14 15:52:52;;;;;;;2.22;0.90;;;;;;;;;;5053042;28;20112;-58
2022/05/14 15:58:36;;;;;;;1.67;0.80;;;;;;;;;;5037299;28;20049;-58
2022/05/14 16:01:20;;;;;;;2.70;0.90;;;;;;;;;;5019655;28;20109;-59
2022/05/14 16:07:32;;;;;;;1.77;0.90;;;;;;;;;;5021193;28;20117;-59
2022/05/14 16:17:00;;;;;;;3.33;0.93;;;;;;;;;;4994170;28;20082;-59
2022/05/14 16:19:41;;;;;;;1.30;0.68;;;;;;;;;;5001881;28;20443;-59
2022/05/14 16:25:18;;;;;;;6.10;1.48;;;;;;;;;;5035723;28;20033;-59
2022/05/14 16:27:57;;;;;;;2.25;0.82;;;;;;;;;;5035883;28;20176;-59
2022/05/14 16:33:36;;;;;;;4.03;1.23;;;;;;;;;;5012081;28;20087;-59
2022/05/14 16:39:08;;;;;;;1.23;0.63;;;;;;;;;;5034559;28;20030;-59
2022/05/14 16:44:40;;;;;;;2.22;1.10;;;;;;;;;;5007038;28;20121;-59
2022/05/14 16:47:20;;;;;;;2.60;1.02;;;;;;;;;;5036207;28;20033;-59
2022/05/14 16:50:00;;;;;;;2.30;0.85;;;;;;;;;;5018366;28;20034;-59
2022/05/14 16:52:32;;;;;;;;;;;;;;;;;;5036573;28;20359;-59
2022/05/14 16:55:07;;;;;;;3.72;1.17;;;;;;;;;;5035506;28;19905;-59
2022/05/14 16:57:34;;;;;;;3.08;1.35;;;;;;;;;;5032361;28;20049;-59
2022/05/14 17:00:28;;;;;;;2.25;0.80;;;;;;;;;;5035659;28;20047;-59
2022/05/14 17:03:23;;;;;;;1.95;0.85;;;;;;;;;;5035947;28;20033;-59
2022/05/14 17:06:18;;;;;;;4.53;0.93;;;;;;;;;;5019312;28;20618;-59
2022/05/14 17:08:53;;;;;;;1.95;0.95;;;;;;;;;;5017243;28;20144;-59
2022/05/14 17:11:44;;;;;;;2.88;0.93;;;;;;;;;;5030096;28;20034;-58
2022/05/14 17:14:28;;;;;;;2.72;1.10;;;;;;;;;;5029640;28;20475;-59
2022/05/14 17:17:07;;;;;;;2.15;0.90;;;;;;;;;;5034822;28;20083;-59
2022/05/14 17:22:45;;;;;;;2.53;1.10;;;;;;;;;;5035314;28;20044;-59
2022/05/14 17:25:26;;;;;;;1.58;0.80;;;;;;;;;;5049764;28;20076;-59
2022/05/14 17:40:39;;;;;;;2.20;1.10;;;;;;;;;;5035144;28;20438;-59
2022/05/14 17:43:08;;;;;;;;;;;;;;;;;;5036415;28;20087;-59
2022/05/14 17:46:01;;;;;;;2.55;1.10;;;;;;;;;;5034975;28;19905;-59
2022/05/14 17:48:33;;;;;;;5.18;0.80;;;;;;;;;;5034794;28;20360;-59
2022/05/14 17:52:22;;;;;;;2.78;1.30;;;;;;;;;;5035133;28;20026;-59
2022/05/14 17:54:30;;;;;;;;;;;;;;;;;;;;;
2022/05/14 17:57:17;;;;;;;3.22;1.50;;;;;;;;;;5015922;28;20044;-59
2022/05/14 18:03:15;;;;;;;2.35;1.38;;;;;;;;;;5011225;28;20033;-59
2022/05/14 18:08:44;;;;;;;2.13;1.45;;;;;;;;;;5035020;28;20356;-59
2022/05/14 18:13:59;;;;;;;2.92;1.80;;;;;;;;;;5018506;28;20110;-59
2022/05/14 18:22:20;;;;;;;;;;;;;;;;;;4982463;28;20440;-59
2022/05/14 18:25:00;;;;;;;2.22;1.20;;;;;;;;;;4992375;28;19949;-59
2022/05/14 18:27:50;;;;;;;3.28;1.65;;;;;;;;;;4972534;28;20046;-59
2022/05/14 18:30:55;;;;;;;2.65;1.13;;;;;;;;;;4975131;28;20063;-60
2022/05/14 18:36:45;;;;;;;1.85;1.10;;;;;;;;;;5009948;28;20045;-59
2022/05/14 18:39:18;;;;;;;3.10;1.27;;;;;;;;;;5011963;28;20368;-59
2022/05/14 18:41:52;;;;;;;3.55;1.15;;;;;;;;;;5014150;28;20452;-59
2022/05/14 18:44:47;;;;;;;5.45;1.85;;;;;;;;;;5013784;28;20121;-59
2022/05/14 18:47:35;;;;;;;4.25;1.70;;;;;;;;;;5013713;28;20456;-59
2022/05/14 18:53:22;;;;;;;1.83;1.00;;;;;;;;;;5013713;28;20030;-59
2022/05/14 18:56:20;;;;;;;3.08;1.23;;;;;;;;;;5012933;28;20059;-59
2022/05/14 18:59:20;;;;;;;3.05;1.50;;;;;;;;;;5011891;28;20431;-59
2022/05/14 19:02:06;;;;;;;2.00;0.93;;;;;;;;;;5012319;28;20030;-59
2022/05/14 19:07:56;;;;;;;2.97;1.30;;;;;;;;;;5013787;28;20100;-59
2022/05/14 19:10:32;;;;;;;5.20;2.00;;;;;;;;;;5009040;28;20033;-60
2022/05/14 19:13:34;;;;;;;3.25;1.48;;;;;;;;;;5014186;28;20122;-59
2022/05/14 19:16:09;;;;;;;2.15;1.25;;;;;;;;;;5012697;28;20042;-59
2022/05/14 19:18:58;;;;;;;3.75;1.27;;;;;;;;;;5012253;28;20072;-60
2022/05/14 19:21:40;;;;;;;3.35;1.75;;;;;;;;;;4994814;28;20049;-60
2022/05/14 19:31:06;;;;;;;1.67;0.80;;;;;;;;;;5016452;28;20061;-60
2022/05/14 19:33:38;;;;;;;3.42;1.30;;;;;;;;;;5017842;28;20026;-60
2022/05/14 19:36:11;;;;;;;2.45;1.30;;;;;;;;;;5001336;28;20033;-60
2022/05/14 19:38:50;;;;;;;2.13;1.00;;;;;;;;;;5000479;28;20033;-60
2022/05/14 19:41:37;;;;;;;1.88;0.77;;;;;;;;;;5015046;28;20030;-60
2022/05/14 19:44:21;;;;;;;;;;;;;;;;;;;;;
2022/05/14 19:46:57;;;;;;;2.10;0.85;;;;;;;;;;5002092;28;20097;-60
2022/05/14 19:49:55;;;;;;;2.08;0.90;;;;;;;;;;4999558;28;20048;-60
2022/05/14 19:52:53;;;;;;;2.70;1.23;;;;;;;;;;4983399;28;20034;-60
2022/05/14 19:55:38;;;;;;;2.10;1.10;;;;;;;;;;4984319;28;20040;-59
2022/05/14 19:58:23;;;;;;;3.13;0.90;;;;;;;;;;5016622;28;20074;-60
2022/05/14 20:07:07;;;;;;;1.63;0.90;;;;;;;;;;4949229;29;20038;-60
2022/05/14 20:13:02;;;;;;;2.03;1.25;;;;;;;;;;4956830;29;20035;-60
2022/05/14 20:16:02;;;;;;;2.58;1.08;;;;;;;;;;4999154;28;20030;-60
2022/05/14 20:21:59;;;;;;;3.85;1.80;;;;;;;;;;5017085;28;20037;-60
2022/05/14 20:24:46;;;;;;;3.33;1.50;;;;;;;;;;5017058;28;20018;-60
2022/05/14 20:27:47;;;;;;;2.85;1.85;;;;;;;;;;5017062;28;20033;-60
2022/05/14 20:30:27;;;;;;;9.65;2.10;;;;;;;;;;4992557;28;20136;-60
2022/05/14 20:32:54;;;;;;;2.72;1.75;;;;;;;;;;5018612;28;20029;-59
2022/05/14 20:35:47;;;;;;;3.08;2.00;;;;;;;;;;5041110;28;20037;-59
2022/05/14 20:38:36;;;;;;;4.28;2.17;;;;;;;;;;5016845;28;20551;-60
2022/05/14 20:41:10;;;;;;;4.32;2.17;;;;;;;;;;5012843;28;20491;-59
2022/05/14 20:44:16;;;;;;;3.80;1.67;;;;;;;;;;5036282;28;20044;-59
2022/05/14 20:47:10;;;;;;;3.72;1.80;;;;;;;;;;5035051;28;20040;-58
2022/05/14 20:49:47;;;;;;;2.53;1.63;;;;;;;;;;5031125;28;20029;-59
2022/05/14 20:52:18;;;;;;;3.17;1.90;;;;;;;;;;5036802;28;20456;-60
2022/05/14 20:55:06;;;;;;;4.25;2.22;;;;;;;;;;5035439;28;20033;-58
2022/05/14 20:58:02;;;;;;;6.30;1.83;;;;;;;;;;5036145;28;20025;-58
2022/05/14 21:00:35;;;;;;;3.10;1.65;;;;;;;;;;5035775;28;20375;-58
2022/05/14 21:03:21;;;;;;;3.75;1.80;;;;;;;;;;5045260;28;20021;-58
2022/05/14 21:06:25;;;;;;;3.95;1.73;;;;;;;;;;5044657;28;20030;-58
2022/05/14 21:09:20;;;;;;;2.13;1.15;;;;;;;;;;5003826;28;20028;-58
2022/05/14 21:12:37;;;;;;;;;;;;;;;;;;;;;
2022/05/14 21:15:04;;;;;;;2.67;1.52;;;;;;;;;;5046965;28;20052;-58
2022/05/14 21:17:31;;;;;;;9.35;1.88;;;;;;;;;;5045961;28;20379;-59
2022/05/14 21:20:32;;;;;;;13.43;9.63;;;;;;;;;;5028598;28;20083;-60
2022/05/14 21:29:18;;;;;;;8.35;3.97;;;;;;;;;;4983988;28;20034;-60
2022/05/14 21:40:46;;;;;;;;;;;;;;;;;;;;;
2022/05/14 21:43:49;;;;;;;8.70;5.38;;;;;;;;;;5026301;28;20057;-60
2022/05/14 21:46:47;;;;;;;6.95;3.97;;;;;;;;;;5027079;28;20030;-60
2022/05/14 21:49:22;;;;;;;4.22;3.35;;;;;;;;;;5026747;28;20070;-60
2022/05/14 21:51:57;;;;;;;4.07;2.80;;;;;;;;;;5026325;28;20061;-60
2022/05/14 21:54:29;;;;;;;3.70;2.70;;;;;;;;;;5025850;28;20029;-60
2022/05/14 21:57:42;;;;;;;6.43;2.55;;;;;;;;;;5025765;28;20025;-60
2022/05/14 22:00:30;;;;;;;3.83;3.05;;;;;;;;;;4985682;28;20059;-60
2022/05/14 22:03:14;;;;;;;3.83;2.20;;;;;;;;;;4985376;28;20042;-60
2022/05/14 22:06:33;;;;;;;3.55;2.25;;;;;;;;;;4984843;28;20030;-60
2022/05/14 22:09:23;;;;;;;4.25;2.17;;;;;;;;;;4978100;28;20061;-60
2022/05/14 22:12:01;;;;;;;3.88;1.83;;;;;;;;;;4927335;29;20095;-60
2022/05/14 22:14:46;;;;;;;3.13;1.83;;;;;;;;;;4927027;29;20100;-60
2022/05/14 22:17:40;;;;;;;4.32;1.80;;;;;;;;;;4983850;28;20139;-60
2022/05/14 22:29:43;;;;;;;4.38;3.35;;;;;;;;;;5024439;28;20034;-60
2022/05/14 22:32:10;;;;;;;3.97;2.63;;;;;;;;;;5034040;28;20052;-60
2022/05/14 22:44:25;;;;;;;;;;;;;;;;;;;;;
2022/05/14 22:50:21;;;;;;;28.52;20.35;;;;;;;;;;5017477;28;20044;-60
2022/05/14 22:53:12;;;;;;;38.83;28.60;;;;;;;;;;5024607;28;20026;-60
2022/05/14 22:59:17;;;;;;;22.98;18.30;;;;;;;;;;5022321;28;20083;-60
2022/05/14 23:01:49;;;;;;;16.58;12.50;;;;;;;;;;5065078;28;20036;-60
2022/05/14 23:04:36;;;;;;;17.63;12.10;;;;;;;;;;5067580;28;20028;-59
2022/05/14 23:07:25;;;;;;;12.63;9.55;;;;;;;;;;5069438;28;20343;-60
2022/05/14 23:13:15;;;;;;;10.63;7.72;;;;;;;;;;5045253;28;20067;-59
2022/05/14 23:19:24;;;;;;;7.85;4.63;;;;;;;;;;5017876;28;20045;-60
2022/05/14 23:22:11;;;;;;;7.57;3.38;;;;;;;;;;5067569;28;20048;-60
2022/05/14 23:25:17;;;;;;;6.93;3.63;;;;;;;;;;5052171;28;20040;-60
2022/05/14 23:27:46;;;;;;;7.60;2.95;;;;;;;;;;5068965;28;20021;-60
2022/05/14 23:33:42;;;;;;;13.15;7.53;;;;;;;;;;5007075;28;20046;-59
2022/05/14 23:42:09;;;;;;;7.03;5.43;;;;;;;;;;5010437;28;20033;-60
2022/05/14 23:50:49;;;;;;;13.02;7.60;;;;;;;;;;4987878;28;20069;-59
2022/05/14 23:53:31;;;;;;;7.35;6.18;;;;;;;;;;4987820;28;20133;-59
2022/05/14 23:56:17;;;;;;;8.20;4.38;;;;;;;;;;4987756;28;20520;-59
